createdAt,value
2022-12-03T00:03:07.545Z,2.03
2022-12-03T00:08:09.585Z,2.21
2022-12-03T00:13:11.635Z,1.90
2022-12-03T00:18:13.501Z,2.01
2022-12-03T00:23:15.429Z,2.20
2022-12-03T00:28:17.305Z,1.84
2022-12-03T00:33:19.807Z,1.80
2022-12-03T00:38:21.812Z,2.22
2022-12-03T00:43:25.136Z,2.10
2022-12-03T00:48:27.577Z,2.22
2022-12-03T00:53:29.634Z,2.16
2022-12-03T00:58:31.584Z,2.22
2022-12-03T01:03:33.571Z,1.77
2022-12-03T01:08:35.567Z,1.80
2022-12-03T01:13:37.604Z,1.93
2022-12-03T01:18:39.671Z,1.86
2022-12-03T01:23:41.636Z,2.08
2022-12-03T01:28:43.692Z,1.79
2022-12-03T01:33:45.625Z,1.81
2022-12-03T01:38:48.808Z,1.98
2022-12-03T01:43:52.033Z,1.97
2022-12-03T01:48:55.805Z,1.79
2022-12-03T01:53:58.626Z,1.99
2022-12-03T01:59:00.592Z,1.85
2022-12-03T02:04:02.567Z,2.07
2022-12-03T02:09:08.520Z,2.06
2022-12-03T02:14:18.152Z,2.19
2022-12-03T02:19:30.655Z,2.51
2022-12-03T02:24:51.254Z,2.46
2022-12-03T02:29:53.572Z,2.36
2022-12-03T02:34:55.919Z,2.50
2022-12-03T02:40:03.975Z,2.58
2022-12-03T02:45:21.086Z,2.62
2022-12-03T02:50:28.437Z,2.43
2022-12-03T02:55:36.862Z,2.66
2022-12-03T03:00:39.874Z,2.78
2022-12-03T03:05:42.152Z,2.74
2022-12-03T03:10:45.888Z,3.04
2022-12-03T03:15:48.746Z,3.19
2022-12-03T03:20:50.987Z,2.74
2022-12-03T03:26:09.522Z,2.84
2022-12-03T03:31:14.421Z,2.68
2022-12-03T03:36:17.041Z,3.06
2022-12-03T03:41:20.857Z,2.68
2022-12-03T03:46:23.459Z,2.85
2022-12-03T03:51:25.987Z,2.78
2022-12-03T03:56:28.199Z,2.45
2022-12-03T04:01:31.301Z,3.05
2022-12-03T04:06:33.251Z,2.76
2022-12-03T04:11:53.610Z,2.93
2022-12-03T04:16:55.600Z,2.73
2022-12-03T04:22:16.394Z,2.70
2022-12-03T04:27:36.566Z,2.44
2022-12-03T04:32:56.883Z,2.60
2022-12-03T04:37:58.914Z,2.74
2022-12-03T04:43:00.821Z,2.84
2022-12-03T04:48:02.726Z,2.67
2022-12-03T04:53:04.800Z,2.51
2022-12-03T04:58:06.871Z,2.94
2022-12-03T05:03:08.861Z,2.97
2022-12-03T05:08:10.824Z,2.75
2022-12-03T05:13:12.791Z,3.20
2022-12-03T05:18:14.723Z,3.02
2022-12-03T05:23:16.968Z,3.06
2022-12-03T05:28:20.504Z,2.93
2022-12-03T05:33:22.497Z,2.46
2022-12-03T05:38:24.427Z,2.54
2022-12-03T05:43:26.526Z,2.57
2022-12-03T05:48:28.436Z,2.80
2022-12-03T05:53:30.576Z,2.71
2022-12-03T05:58:32.679Z,3.08
2022-12-03T06:03:34.655Z,3.06
2022-12-03T06:08:36.677Z,3.05
2022-12-03T06:13:38.684Z,2.99
2022-12-03T06:18:40.740Z,2.91
2022-12-03T06:23:44.944Z,2.87
2022-12-03T06:28:49.123Z,3.19
2022-12-03T06:33:51.038Z,3.03
2022-12-03T06:38:53.356Z,3.02
2022-12-03T06:43:55.324Z,3.21
2022-12-03T06:48:57.665Z,3.54
2022-12-03T06:53:59.891Z,3.34
2022-12-03T06:59:02.117Z,3.52
2022-12-03T07:04:04.183Z,3.72
2022-12-03T07:09:06.170Z,3.82
2022-12-03T07:14:12.016Z,3.67
2022-12-03T07:19:14.511Z,3.47
2022-12-03T07:24:16.832Z,3.32
2022-12-03T07:29:18.898Z,3.64
2022-12-03T07:34:21.919Z,3.63
2022-12-03T07:39:23.900Z,3.45
2022-12-03T07:44:26.475Z,3.70
2022-12-03T07:49:28.506Z,3.47
2022-12-03T07:54:30.867Z,3.64
2022-12-03T07:59:33.037Z,3.76
2022-12-03T08:04:34.938Z,3.88
2022-12-03T08:09:39.614Z,3.72
2022-12-03T08:14:41.750Z,3.70
2022-12-03T08:19:47.002Z,3.77
2022-12-03T08:24:48.940Z,3.97
2022-12-03T08:30:00.625Z,3.79
2022-12-03T08:35:02.638Z,4.05
2022-12-03T08:40:21.955Z,4.39
2022-12-03T08:45:35.115Z,4.04
2022-12-03T08:50:40.476Z,4.29
2022-12-03T08:55:46.883Z,4.27
2022-12-03T09:01:11.111Z,4.47
2022-12-03T09:06:13.080Z,4.86
2022-12-03T09:11:15.572Z,4.54
2022-12-03T09:16:17.528Z,4.78
2022-12-03T09:21:19.740Z,4.64
2022-12-03T09:26:21.628Z,4.76
2022-12-03T09:31:25.433Z,4.73
2022-12-03T09:36:27.474Z,4.63
2022-12-03T09:41:29.603Z,4.66
2022-12-03T09:46:31.761Z,4.87
2022-12-03T09:51:36.191Z,5.07
2022-12-03T09:56:38.351Z,5.24
2022-12-03T10:01:40.592Z,5.26
2022-12-03T10:06:46.006Z,5.55
2022-12-03T10:11:48.428Z,5.37
2022-12-03T10:16:50.872Z,5.66
2022-12-03T10:21:53.170Z,5.99
2022-12-03T10:26:57.796Z,5.83
2022-12-03T10:32:02.343Z,6.01
2022-12-03T10:37:21.380Z,5.80
2022-12-03T10:42:25.353Z,5.82
2022-12-03T10:47:27.471Z,5.86
2022-12-03T10:52:29.969Z,5.51
2022-12-03T10:57:32.411Z,5.24
2022-12-03T11:02:34.336Z,5.48
2022-12-03T11:07:39.021Z,5.87
2022-12-03T11:12:41.339Z,5.80
2022-12-03T11:17:49.206Z,6.22
2022-12-03T11:22:55.570Z,6.14
2022-12-03T11:28:15.760Z,6.24
2022-12-03T11:33:24.671Z,6.43
2022-12-03T11:38:41.597Z,6.63
2022-12-03T11:43:56.305Z,6.68
2022-12-03T11:48:59.962Z,6.94
2022-12-03T11:54:02.007Z,6.51
2022-12-03T11:59:12.277Z,6.53
2022-12-03T12:04:46.782Z,6.74
2022-12-03T12:09:54.914Z,6.46
2022-12-03T12:14:58.348Z,5.76
2022-12-03T12:20:45.292Z,6.04
2022-12-03T12:25:54.231Z,6.11
2022-12-03T12:30:56.512Z,5.94
2022-12-03T12:35:58.570Z,6.19
2022-12-03T12:41:06.728Z,6.21
2022-12-03T12:51:36.029Z,5.86
2022-12-03T12:56:38.946Z,6.36
2022-12-03T13:01:43.279Z,6.30
2022-12-03T13:06:47.707Z,6.57
2022-12-03T13:11:54.548Z,6.42
2022-12-03T13:16:59.011Z,6.35
2022-12-03T13:22:10.120Z,6.45
2022-12-03T13:27:17.932Z,6.30
2022-12-03T13:32:22.769Z,6.37
2022-12-03T13:37:27.806Z,6.65
2022-12-03T13:42:39.311Z,6.30
2022-12-03T13:47:49.529Z,6.37
2022-12-03T13:52:53.007Z,6.41
2022-12-03T13:57:55.501Z,6.41
2022-12-03T14:02:58.815Z,6.22
2022-12-03T14:15:38.191Z,5.99
2022-12-03T14:20:40.076Z,6.20
2022-12-03T14:25:43.963Z,6.12
2022-12-03T14:30:45.908Z,6.12
2022-12-03T14:35:47.925Z,6.20
2022-12-03T14:40:49.901Z,6.08
2022-12-03T14:45:51.907Z,5.96
2022-12-03T14:50:56.265Z,5.89
2022-12-03T14:55:59.444Z,6.25
2022-12-03T15:01:01.386Z,6.17
2022-12-03T15:06:03.688Z,6.04
2022-12-03T15:11:05.809Z,6.15
2022-12-03T15:16:08.558Z,6.24
2022-12-03T15:21:10.485Z,6.10
2022-12-03T15:26:12.464Z,6.28
2022-12-03T15:31:14.453Z,6.24
2022-12-03T15:36:16.760Z,6.22
2022-12-03T15:41:21.879Z,6.05
2022-12-03T15:46:24.068Z,6.28
2022-12-03T15:51:26.096Z,6.31
2022-12-03T15:56:28.074Z,6.27
2022-12-03T16:01:30.313Z,6.15
2022-12-03T16:06:32.592Z,6.27
2022-12-03T16:11:34.484Z,6.38
2022-12-03T16:16:36.507Z,6.31
2022-12-03T16:21:39.077Z,6.37
2022-12-03T16:26:40.992Z,6.34
2022-12-03T16:31:58.447Z,6.51
2022-12-03T16:37:00.423Z,6.58
2022-12-03T16:42:04.033Z,6.65
2022-12-03T16:47:06.133Z,6.60
2022-12-03T16:52:08.119Z,6.51
2022-12-03T16:57:11.352Z,6.67
2022-12-03T17:02:13.847Z,6.60
2022-12-03T17:07:15.913Z,6.69
2022-12-03T17:12:17.835Z,6.58
2022-12-03T17:17:19.752Z,6.66
2022-12-03T17:22:21.904Z,6.49
2022-12-03T17:27:26.009Z,6.53
2022-12-03T17:32:28.030Z,6.60
2022-12-03T17:37:29.962Z,6.86
2022-12-03T17:42:32.001Z,6.78
2022-12-03T17:47:34.267Z,6.68
2022-12-03T17:52:36.321Z,6.51
2022-12-03T17:57:38.368Z,6.60
2022-12-03T18:02:40.542Z,6.43
2022-12-03T18:07:42.504Z,6.14
2022-12-03T18:12:46.095Z,6.33
2022-12-03T18:17:48.098Z,6.27
2022-12-03T18:22:50.259Z,6.36
2022-12-03T18:27:52.265Z,6.53
2022-12-03T18:32:54.499Z,6.84
2022-12-03T18:37:56.440Z,6.52
2022-12-03T18:42:58.523Z,6.63
2022-12-03T18:48:00.636Z,6.73
2022-12-03T18:53:02.570Z,6.59
2022-12-03T18:58:04.704Z,6.55
2022-12-03T19:03:08.322Z,6.44
2022-12-03T19:08:14.845Z,6.37
2022-12-03T19:13:17.078Z,6.45
2022-12-03T19:18:19.092Z,6.27
2022-12-03T19:23:21.088Z,6.06
2022-12-03T19:28:23.280Z,6.15
2022-12-03T19:33:28.623Z,6.28
2022-12-03T19:38:31.188Z,6.13
2022-12-03T19:43:35.192Z,5.93
2022-12-03T19:48:39.225Z,6.40
2022-12-03T19:53:41.711Z,6.12
2022-12-03T19:58:45.367Z,6.20
2022-12-03T20:03:48.663Z,6.14
2022-12-03T20:08:55.035Z,6.13
2022-12-03T20:13:59.727Z,6.07
2022-12-03T20:19:05.088Z,6.25
2022-12-03T20:24:07.951Z,6.11
2022-12-03T20:29:10.267Z,5.86
2022-12-03T20:34:12.361Z,6.06
2022-12-03T20:39:14.368Z,5.93
2022-12-03T20:44:16.342Z,6.00
2022-12-03T20:49:18.471Z,6.11
2022-12-03T20:54:20.682Z,5.85
2022-12-03T20:59:22.636Z,6.22
2022-12-03T21:04:24.632Z,5.87
2022-12-03T21:09:26.672Z,5.79
2022-12-03T21:14:28.800Z,5.70
2022-12-03T21:19:30.883Z,5.77
2022-12-03T21:24:33.405Z,5.47
2022-12-03T21:29:35.494Z,5.87
2022-12-03T21:34:37.620Z,5.98
2022-12-03T21:39:39.623Z,5.81
2022-12-03T21:44:41.702Z,5.62
2022-12-03T21:49:43.830Z,5.93
2022-12-03T21:54:45.995Z,5.61
2022-12-03T21:59:47.963Z,5.53
2022-12-03T22:04:50.808Z,5.82
2022-12-03T22:09:53.433Z,5.72
2022-12-03T22:14:57.215Z,5.67
2022-12-03T22:19:59.264Z,5.64
2022-12-03T22:25:01.263Z,5.89
2022-12-03T22:30:04.400Z,5.78
2022-12-03T22:35:06.703Z,5.38
2022-12-03T22:40:08.946Z,5.53
2022-12-03T22:45:11.186Z,5.72
2022-12-03T22:50:13.404Z,5.38
2022-12-03T22:55:15.513Z,4.94
2022-12-03T23:00:28.959Z,5.26
2022-12-03T23:05:37.146Z,5.56
2022-12-03T23:10:41.781Z,5.70
2022-12-03T23:15:49.175Z,5.94
2022-12-03T23:20:53.468Z,5.72
2022-12-03T23:25:59.429Z,6.06
2022-12-03T23:31:01.873Z,6.12
2022-12-03T23:36:06.278Z,5.91
2022-12-03T23:41:11.417Z,5.59
2022-12-03T23:46:16.056Z,5.36
2022-12-03T23:51:21.176Z,5.41
2022-12-03T23:56:29.346Z,5.19
